createdAt,value
2018-06-12T00:00:50.835Z,11.43
2018-06-12T00:03:18.046Z,10.82
2018-06-12T00:05:45.254Z,11.30
2018-06-12T00:08:12.464Z,10.55
2018-06-12T00:10:39.642Z,10.93
2018-06-12T00:13:06.950Z,10.75
2018-06-12T00:15:34.286Z,11.63
2018-06-12T00:18:01.478Z,10.88
2018-06-12T00:20:28.789Z,10.88
2018-06-12T00:22:56.010Z,10.68
2018-06-12T00:25:23.283Z,10.23
2018-06-12T00:27:50.499Z,10.03
2018-06-12T00:30:17.737Z,10.08
2018-06-12T00:32:44.957Z,9.60
2018-06-12T00:35:12.140Z,9.30
2018-06-12T00:37:39.370Z,9.50
2018-06-12T00:40:06.568Z,8.93
2018-06-12T00:42:33.795Z,9.58
2018-06-12T00:45:00.975Z,9.20
2018-06-12T00:47:28.146Z,9.43
2018-06-12T00:49:55.351Z,8.65
2018-06-12T00:52:22.691Z,9.40
2018-06-12T00:54:49.939Z,9.30
2018-06-12T00:57:17.126Z,8.78
2018-06-12T00:59:44.332Z,8.85
2018-06-12T01:02:11.629Z,8.33
2018-06-12T01:04:38.834Z,8.48
2018-06-12T01:07:06.030Z,8.00
2018-06-12T01:09:33.236Z,7.80
2018-06-12T01:12:00.427Z,8.35
2018-06-12T01:14:27.654Z,8.05
2018-06-12T01:16:54.859Z,7.92
2018-06-12T01:19:22.075Z,8.18
2018-06-12T01:21:49.278Z,7.10
2018-06-12T01:24:16.475Z,7.00
2018-06-12T01:26:43.667Z,7.80
2018-06-12T01:29:10.880Z,7.00
2018-06-12T01:31:38.086Z,6.62
2018-06-12T01:34:05.332Z,7.15
2018-06-12T01:36:32.523Z,6.55
2018-06-12T01:38:59.728Z,6.58
2018-06-12T01:41:26.947Z,6.53
2018-06-12T01:43:54.138Z,6.70
2018-06-12T01:46:21.345Z,6.45
2018-06-12T01:48:48.634Z,5.78
2018-06-12T01:51:15.838Z,6.12
2018-06-12T01:53:43.046Z,5.83
2018-06-12T01:56:10.250Z,5.22
2018-06-12T01:58:37.454Z,5.53
2018-06-12T02:01:04.663Z,5.28
2018-06-12T02:03:31.921Z,5.10
2018-06-12T02:05:59.110Z,5.35
2018-06-12T02:08:26.310Z,5.05
2018-06-12T02:10:53.515Z,5.12
2018-06-12T02:13:20.716Z,4.90
2018-06-12T02:15:47.945Z,4.80
2018-06-12T02:18:15.147Z,4.90
2018-06-12T02:20:42.365Z,5.05
2018-06-12T02:23:09.551Z,4.97
2018-06-12T02:25:36.773Z,4.70
2018-06-12T02:28:04.063Z,5.08
2018-06-12T02:30:31.279Z,4.78
2018-06-12T02:32:58.807Z,5.00
2018-06-12T02:35:26.003Z,5.20
2018-06-12T02:37:53.202Z,4.72
2018-06-12T02:40:20.402Z,4.78
2018-06-12T02:42:47.900Z,4.72
2018-06-12T02:45:15.136Z,5.55
2018-06-12T02:47:42.428Z,4.72
2018-06-12T02:50:09.664Z,4.83
2018-06-12T02:52:36.863Z,4.58
2018-06-12T02:55:04.079Z,4.92
2018-06-12T02:57:31.275Z,4.33
2018-06-12T02:59:58.486Z,4.37
2018-06-12T03:02:25.714Z,4.20
2018-06-12T03:04:55.249Z,4.62
2018-06-12T03:07:22.439Z,4.80
2018-06-12T03:09:53.478Z,4.45
2018-06-12T03:12:20.779Z,4.50
2018-06-12T03:14:48.982Z,5.15
2018-06-12T03:17:16.198Z,4.85
2018-06-12T03:19:43.422Z,4.85
2018-06-12T03:22:10.626Z,4.78
2018-06-12T03:24:37.832Z,5.10
2018-06-12T03:27:05.032Z,4.97
2018-06-12T03:29:32.281Z,4.95
2018-06-12T03:31:59.487Z,5.17
2018-06-12T16:38:48.562Z,14.73
2018-06-12T16:41:15.867Z,15.13
2018-06-12T16:43:43.292Z,14.23
2018-06-12T16:46:10.571Z,13.72
2018-06-12T16:48:37.830Z,14.90
2018-06-12T16:51:05.412Z,14.95
2018-06-12T16:53:33.132Z,14.47
2018-06-12T16:56:01.853Z,14.98
2018-06-12T16:58:29.151Z,14.73
2018-06-12T17:00:56.448Z,15.32
2018-06-12T17:03:23.697Z,15.20
2018-06-12T17:05:51.013Z,14.68
2018-06-12T17:08:18.242Z,13.68
2018-06-12T17:10:46.378Z,14.10
2018-06-12T17:13:13.628Z,14.90
2018-06-12T17:15:40.868Z,14.55
2018-06-12T17:18:08.138Z,13.70
2018-06-12T17:20:35.427Z,13.90
2018-06-12T17:23:03.919Z,14.83
2018-06-12T17:25:31.234Z,13.30
2018-06-12T17:27:58.508Z,14.60
2018-06-12T17:30:25.768Z,14.03
2018-06-12T17:32:53.012Z,14.18
2018-06-12T17:35:20.321Z,14.15
2018-06-12T17:37:47.627Z,13.32
2018-06-12T17:40:15.044Z,14.25
2018-06-12T17:42:42.291Z,14.63
2018-06-12T17:45:09.578Z,14.93
2018-06-12T17:47:40.697Z,14.58
2018-06-12T17:50:08.013Z,15.53
2018-06-12T17:52:35.328Z,15.78
2018-06-12T17:55:03.939Z,16.25
2018-06-12T17:57:31.407Z,16.57
2018-06-12T17:59:58.663Z,16.87
2018-06-12T18:02:25.897Z,16.57
2018-06-12T18:04:53.154Z,16.32
2018-06-12T18:07:20.577Z,18.02
2018-06-12T18:09:47.835Z,17.77
2018-06-12T18:12:15.171Z,17.75
2018-06-12T18:14:42.479Z,16.80
2018-06-12T18:17:09.807Z,18.90
2018-06-12T18:19:37.396Z,18.60
2018-06-12T18:22:04.976Z,18.87
2018-06-12T18:24:32.233Z,19.15
2018-06-12T18:27:02.532Z,18.05
2018-06-12T18:29:30.170Z,18.85
2018-06-12T18:31:57.417Z,19.65
2018-06-12T18:34:24.848Z,19.50
2018-06-12T18:36:52.119Z,19.17
2018-06-12T18:39:21.141Z,19.45
2018-06-12T18:41:48.412Z,19.98
2018-06-12T18:44:15.723Z,20.05
2018-06-12T18:46:42.971Z,20.97
2018-06-12T18:49:10.258Z,20.43
2018-06-12T18:51:37.511Z,20.35
2018-06-12T18:54:13.044Z,21.65
2018-06-12T18:56:41.156Z,21.23
2018-06-12T18:59:14.830Z,22.32
2018-06-12T19:01:42.089Z,22.02
2018-06-12T19:04:10.453Z,23.18
2018-06-12T19:06:41.184Z,22.13
2018-06-12T19:09:08.564Z,22.42
2018-06-12T19:11:36.487Z,22.10
2018-06-12T19:14:04.509Z,22.13
2018-06-12T19:16:32.423Z,22.32
2018-06-12T19:18:59.760Z,22.75
2018-06-12T19:21:27.168Z,21.70
2018-06-12T19:23:57.529Z,22.77
2018-06-12T19:26:25.636Z,25.48
2018-06-12T19:28:53.383Z,25.88
2018-06-12T19:31:21.231Z,25.88
2018-06-12T19:33:48.652Z,26.40
2018-06-12T19:36:16.929Z,26.45
2018-06-12T19:38:47.551Z,26.00
2018-06-12T19:41:15.194Z,26.68
2018-06-12T19:43:42.624Z,27.32
2018-06-12T19:46:09.975Z,29.10
2018-06-12T19:48:37.341Z,29.05
2018-06-12T19:51:04.847Z,27.70
2018-06-12T19:53:32.332Z,29.18
2018-06-12T19:55:59.768Z,27.25
2018-06-12T19:58:27.034Z,27.37
2018-06-12T20:00:54.428Z,28.00
2018-06-12T20:03:21.722Z,27.93
2018-06-12T20:05:49.211Z,29.85
2018-06-12T20:08:16.616Z,28.12
2018-06-12T20:10:45.959Z,27.87
2018-06-12T20:13:13.184Z,29.02
2018-06-12T20:15:40.476Z,29.42
2018-06-12T20:18:07.704Z,28.77
2018-06-12T20:20:34.966Z,27.87
2018-06-12T20:23:02.273Z,28.75
2018-06-12T20:25:29.545Z,29.05
2018-06-12T20:27:56.778Z,28.77
2018-06-12T20:30:24.100Z,28.40
2018-06-12T20:32:51.368Z,27.70
2018-06-12T20:35:18.703Z,27.52
2018-06-12T20:37:46.014Z,28.27
2018-06-12T20:40:13.453Z,27.22
2018-06-12T20:42:40.904Z,27.67
2018-06-12T20:45:08.159Z,27.77
2018-06-12T20:47:35.444Z,27.05
2018-06-12T20:50:02.750Z,27.48
2018-06-12T20:52:30.318Z,27.65
2018-06-12T20:54:57.652Z,27.60
2018-06-12T20:57:24.871Z,26.50
2018-06-12T20:59:52.483Z,26.73
2018-06-12T21:02:19.840Z,25.88
2018-06-12T21:04:47.125Z,25.85
2018-06-12T21:07:14.608Z,23.85
2018-06-12T21:09:41.749Z,23.62
2018-06-12T21:12:09.023Z,23.32
2018-06-12T21:14:36.661Z,22.32
2018-06-12T21:17:04.025Z,22.55
2018-06-12T21:19:31.344Z,22.85
2018-06-12T21:21:58.828Z,23.07
2018-06-12T21:24:26.185Z,21.95
2018-06-12T21:26:53.867Z,21.48
2018-06-12T21:29:21.128Z,21.60
2018-06-12T21:31:48.600Z,21.55
2018-06-12T21:34:15.898Z,21.30
2018-06-12T21:36:43.259Z,19.77
2018-06-12T21:39:13.043Z,20.75
2018-06-12T21:41:42.653Z,20.17
2018-06-12T21:44:10.018Z,19.77
2018-06-12T21:46:37.794Z,20.17
2018-06-12T21:49:05.082Z,19.82
2018-06-12T21:51:32.386Z,20.05
2018-06-12T21:53:59.847Z,20.15
2018-06-12T21:56:29.335Z,19.98
2018-06-12T21:58:56.816Z,20.77
2018-06-12T22:01:24.183Z,20.12
2018-06-12T22:03:51.543Z,21.07
2018-06-12T22:06:18.924Z,19.85
2018-06-12T22:08:46.261Z,19.80
2018-06-12T22:11:13.612Z,20.48
2018-06-12T22:13:40.911Z,20.25
2018-06-12T22:16:08.555Z,20.27
2018-06-12T22:18:36.276Z,20.77
2018-06-12T22:21:03.941Z,20.32
2018-06-12T22:23:32.015Z,20.90
2018-06-12T22:25:59.353Z,20.52
2018-06-12T22:28:27.008Z,19.70
2018-06-12T22:31:12.335Z,19.63
2018-06-12T22:33:39.980Z,19.25
2018-06-12T22:36:17.459Z,18.45
2018-06-12T22:38:44.971Z,19.25
2018-06-12T22:41:12.313Z,19.23
2018-06-12T22:43:39.858Z,12.30
2018-06-12T22:46:07.309Z,10.53
2018-06-12T22:48:34.681Z,9.68
2018-06-12T22:51:02.201Z,8.90
2018-06-12T22:53:29.587Z,8.78
2018-06-12T22:55:59.948Z,8.08
2018-06-12T22:58:27.404Z,7.67
2018-06-12T23:00:54.663Z,8.20
2018-06-12T23:03:21.924Z,7.60
2018-06-12T23:05:49.183Z,7.45
2018-06-12T23:08:16.635Z,6.72
2018-06-12T23:10:44.039Z,7.72
2018-06-12T23:13:11.386Z,7.58
2018-06-12T23:15:38.831Z,7.25
2018-06-12T23:18:06.784Z,7.00
2018-06-12T23:20:50.295Z,7.92
2018-06-12T23:23:17.646Z,8.13
2018-06-12T23:25:44.911Z,7.65
2018-06-12T23:28:12.138Z,7.50
2018-06-12T23:30:39.489Z,7.47
2018-06-12T23:33:06.727Z,7.75
2018-06-12T23:35:33.940Z,7.55
2018-06-12T23:38:01.188Z,7.67
2018-06-12T23:40:28.503Z,7.55
2018-06-12T23:42:55.914Z,7.08
2018-06-12T23:45:23.159Z,7.58
2018-06-12T23:47:50.436Z,7.83
2018-06-12T23:50:17.691Z,7.60
2018-06-12T23:52:44.977Z,7.67
2018-06-12T23:55:12.281Z,7.53
2018-06-12T23:57:39.541Z,7.62
